• Join FlightAware (Why Join?)
  • Login
  • US Flag 
03:25PM EDT


 

Airport Tracker/Info


-or-


 

Live Flight TrackerFlight Track Log ✈ EJA922 ✈ 15-Aug-2013 ✈ KSLC - KAPA

Flight Track Log - Related Links

Times and Time Zones

All times are in EDT time to prevent confusion due to time zone crossing. See the EJA922 flight status page for this flight to view local times or setup timezone preferences in your user account.

Time Position Orientation Groundspeed Altitude Reporting Facility
EDT Latitude Longitude Course Direction KTS MPH feet Rate Location/Type
05:33PM 40.8033 -111.9633 355° North 189 217 4,900  Level Salt Lake Center
05:34PM 40.8344 -111.9669 355° North 223 257 6,200 3,180 Climbing Salt Lake Center
05:35PM 40.9031 -111.9778 353° North 260 299 9,800 3,780 Climbing Salt Lake Center
05:36PM 41.0019 -111.9539 10° North 294 338 15,400 3,000 Climbing Salt Lake Center
05:37PM 40.9928 -111.8503 97° East 325 374 17,300 1,620 Climbing Salt Lake Center
05:38PM 40.9131 -111.7275 131° Southeast 382 440 18,800 1,560 Climbing Salt Lake Center
05:39PM 40.8431 -111.6133 129° Southeast 402 463 20,600 1,740 Climbing Salt Lake Center
05:40PM 40.8083 -111.4686 108° East 420 483 22,400 1,740 Climbing Salt Lake Center
05:41PM 40.7756 -111.3197 106° East 426 490 24,200 1,920 Climbing Salt Lake Center
05:42PM 40.7336 -111.1406 107° East 428 493 26,400 1,800 Climbing Salt Lake Center
05:43PM 40.6989 -110.9869 107° East 436 502 28,000 1,440 Climbing Salt Lake Center
05:44PM 40.6619 -110.8275 107° East 452 520 29,400 1,320 Climbing Salt Lake Center
05:45PM 40.6231 -110.6617 107° East 470 541 30,800 1,380 Climbing Salt Lake Center
05:46PM 40.5817 -110.4789 107° East 482 555 32,300 1,440 Climbing Salt Lake Center
05:47PM 40.5381 -110.2967 107° East 499 574 33,800 1,200 Climbing Salt Lake Center
05:48PM 40.5036 -110.1228 105° East 510 587 34,900 540 Climbing Salt Lake Center
05:49PM 40.4644 -109.9108 104° East 531 611 35,000  Climbing Salt Lake Center
05:50PM 40.4306 -109.7317 104° East 530 610 35,000  Level Salt Lake Center
05:51PM 40.3900 -109.5269 105° East 522 601 35,000  Level Salt Lake Center
05:52PM 40.3567 -109.3517 104° East 518 596 35,000  Level Salt Lake Center
05:54PM 40.3397 -109.1389 96° East 521 600 35,000  Level Salt Lake Center
05:55PM 40.3444 -108.9544 88° East 527 606 35,000  Level Salt Lake Center
05:55PM 40.3483 -108.7667 88° East 528 608 35,000  Level Denver Center
05:56PM 40.3514 -108.5797 89° East 532 612 35,000  Level Denver Center
05:58PM 40.3539 -108.3939 89° East 532 612 35,000  Level Denver Center
05:59PM 40.3558 -108.1775 89° East 530 610 35,000  Level Denver Center
06:00PM 40.3589 -107.9922 89° East 531 611 35,000  Level Denver Center
06:01PM 40.3608 -107.7769 89° East 528 608 35,000  Level Denver Center
06:02PM 40.3611 -107.5903 90° East 533 613 35,000  Level Denver Center
06:03PM 40.3628 -107.3731 89° East 533 613 35,000  Level Denver Center
06:04PM 40.3631 -107.1883 90° East 532 612 35,000  Level Denver Center
06:05PM 40.3642 -106.9722 90° East 531 611 35,000  Level Denver Center
06:06PM 40.3653 -106.8053 89° East 531 611 35,000  Level Denver Center
06:07PM 40.3644 -106.6111 90° East 530 610 35,000  Level Denver Center
06:08PM 40.3639 -106.3856 90° East 532 612 35,000 -1,140 Level Denver Center
06:09PM 40.3617 -106.1683 91° East 534 615 32,700 -2,400 Descending Denver Center
06:10PM 40.3619 -105.9853 90° East 531 611 30,100 -2,580 Descending Denver Center
06:11PM 40.3622 -105.8022 90° East 513 590 27,400 -2,460 Descending Denver Center
06:12PM 40.3553 -105.6381 93° East 471 542 25,100 -2,220 Descending Denver Center
06:13PM 40.3572 -105.4933 89° East 413 475 22,900 -2,520 Descending Denver Center
06:14PM 40.3011 -105.3497 117° Southeast 388 447 19,900 -2,280 Descending Denver Center
06:15PM 40.2167 -105.2850 150° Southeast 360 414 18,300 -1,560 Descending Denver Center
06:16PM 40.1186 -105.2328 158° South 358 412 16,700 -1,740 Descending Denver Center
06:17PM 40.0278 -105.1883 159° South 352 405 14,800 -1,980 Descending Denver Center
06:18PM 39.9350 -105.1419 159° South 334 384 12,700 -1,920 Descending Denver Center
06:19PM 39.8583 -105.0864 151° Southeast 317 365 10,900 -1,740 Descending Denver Center
06:20PM 39.7819 -105.0256 149° Southeast 303 349 9,200 -1,440 Descending Denver Center
06:21PM 39.7044 -105.0106 172° South 284 327 8,000 -600 Descending Denver Center
06:22PM 39.6306 -104.9975 172° South 253 291 8,000  Level Denver Center
06:23PM 39.5639 -104.9828 170° South 244 281 8,000 -180 Level Denver Center
06:24PM 39.5297 -104.9350 133° Southeast 178 205 7,700 -540 Descending Denver Center
06:25PM 39.5242 -104.8797 97° East 160 184 7,000 -840 Descending Denver Center
06:26PM 39.5483 -104.8489 45° Northeast 145 167 6,000 -1,020 Descending Denver Center